20/06/2024 13:58:37
Valor de LLUVIAWU: 0
Realtime2: 0 0 0 0 0 0 0 0 0 1 0 0 0 0 0 0 0 0 0 0 0 0 0 8.6 0 7.1 8.3

Actualizado a las 13:30 hace: 28 minutos SO 240
2024/06/20 11:30 LEZL 201130Z 24007KT 150V290 9999 SCT038 22/11 Q1019 NOSIG

Actualizado a las 13:30 hace: 28 minutos O 250
2024/06/20 11:30 LEMO 201130Z 25009KT 200V300 9999 SCT033 SCT039 22/12 Q1020 NOSIG

Actualizado a las 13:30 hace: 28 minutos SO 240
LEJR De 182 a 222: 240
2024/06/20 11:30 LEJR 201130Z 24009KT 210V290 9999 BKN034 23/12 Q1020
Metar.php se cargó en 0.95 milisegundos.
Despejado:
Bastante nuboso:
Cielo encapotado: CIG
Poco Nuboso: FEW
Parcialmente nuboso: SCT
Muy nuboso: BKN
Cubierto: OVC
Cielo obscurecido: VV
Niebla: FG
Neblina: BR
Calima: HZ
Polvo en suspension: DU
Tormenta cercana TS
Lluvia cercana:
Lluvia cercana WU:
No metar:
diaonoche:
teomaxrad:
solarpct:
solar:
solar1:
solar2:
solar10:
solar60:
solarpn:
solarpn1:
Intensidad:
Humedad: %
Viento:     
Temperatura:
Lluvia Hoy:
Ultimo episodio:
Ultimos 7 dias:
Lluvia ultimo mes:
Hora:
Barómetro tendencia:

Rainweek.php se cargó en 0.95 milisegundos.